Time;durP1;ratioP1;P1;durP2;ratioP2;P2;SDS_P1;SDS_P2;PMS_P1;PMS_P2;Temp;Humidity;BMP_temperature;BMP_pressure;BME280_temperature;BME280_humidity;BME280_pressure;Samples;Min_cycle;Max_cycle;Signal;HPM_P1;HPM_P2
2022/10/29 00:02:25;;;;;;;22.05;10.63;;;;;;;14.84;100.00;101958.13;5061564;28;20028;-71
2022/10/29 00:04:50;;;;;;;23.05;10.98;;;;;;;14.79;100.00;101955.25;5072793;28;20137;-71
2022/10/29 00:07:15;;;;;;;22.95;10.73;;;;;;;14.78;100.00;101948.13;5071557;28;20016;-70
2022/10/29 00:09:41;;;;;;;21.67;10.50;;;;;;;14.76;100.00;101936.66;5071656;28;20059;-71
2022/10/29 00:12:06;;;;;;;23.00;10.32;;;;;;;14.76;100.00;101942.91;5062884;28;20025;-70
2022/10/29 00:14:32;;;;;;;22.27;10.55;;;;;;;14.70;100.00;101939.22;5053079;28;20527;-70
2022/10/29 00:16:57;;;;;;;21.20;10.10;;;;;;;14.69;100.00;101934.81;5052303;28;20016;-70
2022/10/29 00:19:22;;;;;;;21.80;10.68;;;;;;;14.67;100.00;101936.97;5052956;28;20036;-70
2022/10/29 00:21:50;;;;;;;17.98;9.18;;;;;;;14.62;100.00;101942.22;5057408;28;20044;-70
2022/10/29 00:24:16;;;;;;;19.10;9.43;;;;;;;14.54;100.00;101947.94;5072470;28;20033;-71
2022/10/29 00:26:42;;;;;;;23.52;9.48;;;;;;;14.52;100.00;101944.59;5071083;28;20020;-70
2022/10/29 00:29:07;;;;;;;22.63;9.88;;;;;;;14.48;100.00;101943.41;5072313;28;20023;-70
2022/10/29 00:31:32;;;;;;;18.92;9.98;;;;;;;14.51;100.00;101940.22;5068192;28;20029;-70
2022/10/29 00:33:58;;;;;;;19.20;9.48;;;;;;;14.51;100.00;101948.41;5051998;28;20060;-70
2022/10/29 00:36:28;;;;;;;21.17;10.00;;;;;;;14.50;100.00;101944.00;5063248;28;20108;-69
2022/10/29 00:38:54;;;;;;;18.30;10.23;;;;;;;14.47;100.00;101944.44;5064066;28;20028;-70
2022/10/29 00:41:26;;;;;;;19.00;9.82;;;;;;;14.47;100.00;101947.19;5053220;28;20025;-70
2022/10/29 00:44:17;;;;;;;19.75;10.48;;;;;;;14.46;100.00;101940.91;5072408;28;20116;-70
2022/10/29 00:46:46;;;;;;;20.75;9.63;;;;;;;14.43;100.00;101954.13;5072346;28;20032;-70
2022/10/29 00:49:12;;;;;;;21.13;10.38;;;;;;;14.39;100.00;101956.47;5072443;28;20029;-70
2022/10/29 00:51:38;;;;;;;17.63;9.63;;;;;;;14.44;100.00;101961.25;5067576;28;20017;-70
2022/10/29 00:54:14;;;;;;;20.00;9.88;;;;;;;14.43;100.00;101959.56;5051871;28;20037;-70
2022/10/29 00:56:46;;;;;;;18.00;9.57;;;;;;;14.41;100.00;101958.97;5052343;28;20029;-70
2022/10/29 00:59:15;;;;;;;19.80;10.10;;;;;;;14.43;100.00;101959.56;5052258;28;20024;-71
2022/10/29 01:01:42;;;;;;;20.90;10.48;;;;;;;14.40;100.00;101954.56;5052314;28;20027;-71
2022/10/29 01:04:09;;;;;;;21.00;9.90;;;;;;;14.34;100.00;101959.00;5072080;28;20055;-70
2022/10/29 01:06:35;;;;;;;22.30;9.80;;;;;;;14.31;100.00;101949.41;5072280;28;20055;-70
2022/10/29 01:09:00;;;;;;;18.38;9.63;;;;;;;14.26;100.00;101949.25;5071868;28;20440;-70
2022/10/29 01:11:42;;;;;;;19.13;9.55;;;;;;;14.24;100.00;101948.63;5071051;28;20036;-71
2022/10/29 01:14:43;;;;;;;18.55;10.18;;;;;;;14.27;100.00;101940.03;5072044;28;20029;-70
2022/10/29 01:17:22;;;;;;;20.63;10.10;;;;;;;14.17;100.00;101926.06;5049193;28;20070;-71
2022/10/29 01:20:15;;;;;;;18.98;10.15;;;;;;;14.16;100.00;101925.25;5072064;28;20048;-72
2022/10/29 01:22:46;;;;;;;21.48;10.40;;;;;;;14.10;100.00;101917.13;5058625;28;20492;-72
2022/10/29 01:25:43;;;;;;;16.20;9.30;;;;;;;14.16;100.00;101918.97;5051887;28;20053;-72
2022/10/29 01:28:23;;;;;;;18.95;10.85;;;;;;;14.17;100.00;101931.53;5051834;28;20033;-70
2022/10/29 01:31:05;;;;;;;19.92;10.57;;;;;;;14.12;100.00;101924.03;5050499;28;20166;-72
2022/10/29 01:33:33;;;;;;;20.67;10.70;;;;;;;14.07;100.00;101920.28;5070315;28;20031;-72
2022/10/29 01:36:13;;;;;;;23.45;10.48;;;;;;;14.09;100.00;101920.94;5070054;28;20032;-73
2022/10/29 01:39:02;;;;;;;26.92;10.35;;;;;;;14.11;100.00;101916.91;5071699;28;20025;-71
2022/10/29 01:41:38;;;;;;;18.70;10.25;;;;;;;14.10;100.00;101911.69;5070682;28;20345;-72
2022/10/29 01:44:27;;;;;;;16.90;9.25;;;;;;;14.09;100.00;101920.94;5071671;28;20128;-72
2022/10/29 01:46:59;;;;;;;18.55;10.05;;;;;;;14.04;100.00;101899.81;5051320;28;20473;-71
2022/10/29 01:49:35;;;;;;;18.75;9.32;;;;;;;13.99;100.00;101895.06;5052585;28;20037;-71
2022/10/29 01:52:03;;;;;;;16.10;10.13;;;;;;;13.91;100.00;101886.31;5051555;28;20029;-72
2022/10/29 01:54:28;;;;;;;18.48;10.27;;;;;;;13.93;100.00;101882.31;5056723;28;20482;-72
2022/10/29 01:56:55;;;;;;;22.67;9.95;;;;;;;13.89;100.00;101883.81;5075183;28;20146;-71
2022/10/29 01:59:22;;;;;;;20.73;9.90;;;;;;;13.86;100.00;101884.28;5074123;28;20028;-72
2022/10/29 02:02:19;;;;;;;22.13;10.10;;;;;;;13.86;100.00;101891.56;5072869;28;20024;-71
2022/10/29 02:05:00;;;;;;;19.05;9.55;;;;;;;13.85;100.00;101887.22;5034254;28;20076;-72
2022/10/29 02:07:50;;;;;;;19.38;9.43;;;;;;;13.89;100.00;101893.84;5055043;28;20029;-71
2022/10/29 02:10:27;;;;;;;20.20;10.00;;;;;;;13.85;100.00;101890.75;5054886;28;20448;-72
2022/10/29 02:12:54;;;;;;;23.42;10.75;;;;;;;13.86;100.00;101889.72;5054828;28;20027;-71
2022/10/29 02:15:22;;;;;;;17.30;9.43;;;;;;;13.78;100.00;101889.97;5075829;28;20064;-71
2022/10/29 02:17:48;;;;;;;21.08;10.10;;;;;;;13.76;100.00;101875.75;5055008;28;20036;-71
2022/10/29 02:20:15;;;;;;;20.77;9.88;;;;;;;13.76;100.00;101875.75;5054731;28;20024;-71
2022/10/29 02:22:40;;;;;;;19.30;9.73;;;;;;;13.73;100.00;101874.31;5054902;28;20090;-72
2022/10/29 02:25:07;;;;;;;20.23;9.60;;;;;;;13.75;100.00;101874.09;5054094;28;20119;-72
2022/10/29 02:27:32;;;;;;;22.42;10.85;;;;;;;13.72;100.00;101874.53;5054692;28;20025;-72
2022/10/29 02:29:57;;;;;;;21.10;10.63;;;;;;;13.74;100.00;101862.38;5054467;28;20103;-71
2022/10/29 02:32:23;;;;;;;21.13;10.50;;;;;;;13.74;100.00;101865.09;5054806;28;20051;-73
2022/10/29 02:34:48;;;;;;;19.80;10.48;;;;;;;13.76;100.00;101864.88;5058280;28;20032;-71
2022/10/29 02:37:13;;;;;;;18.95;10.48;;;;;;;13.78;100.00;101857.31;5074423;28;20024;-71
2022/10/29 02:39:38;;;;;;;17.60;9.70;;;;;;;13.81;100.00;101851.44;5074839;28;20016;-71
2022/10/29 02:42:04;;;;;;;20.33;11.15;;;;;;;13.81;100.00;101851.44;5073035;28;20444;-71
2022/10/29 02:44:29;;;;;;;17.67;10.70;;;;;;;13.76;100.00;101854.81;5072001;28;20020;-71
2022/10/29 02:46:54;;;;;;;19.30;10.43;;;;;;;13.75;100.00;101849.59;5054010;28;20017;-71
2022/10/29 02:49:20;;;;;;;22.38;10.43;;;;;;;13.74;100.00;101851.50;5054335;28;20490;-71
2022/10/29 02:51:45;;;;;;;20.60;9.82;;;;;;;13.74;100.00;101850.66;5054297;28;20048;-71
2022/10/29 02:54:10;;;;;;;18.85;9.65;;;;;;;13.67;100.00;101853.44;5054023;28;20021;-71
2022/10/29 02:56:36;;;;;;;19.38;10.15;;;;;;;13.61;100.00;101841.53;5072429;28;20448;-71
2022/10/29 02:59:01;;;;;;;18.73;10.05;;;;;;;13.59;100.00;101848.28;5074030;28;20115;-72
2022/10/29 03:01:26;;;;;;;21.45;10.25;;;;;;;13.63;100.00;101841.31;5071641;28;20410;-72
2022/10/29 03:03:51;;;;;;;21.23;10.57;;;;;;;13.58;100.00;101836.53;5073748;28;20017;-71
2022/10/29 03:06:18;;;;;;;18.77;10.27;;;;;;;13.57;100.00;101839.50;5056112;28;20464;-71
2022/10/29 03:08:45;;;;;;;20.67;10.05;;;;;;;13.51;100.00;101834.94;5053611;28;20384;-71
2022/10/29 03:11:11;;;;;;;17.67;9.68;;;;;;;13.49;100.00;101837.06;5052362;28;20360;-71
2022/10/29 03:13:37;;;;;;;17.55;10.13;;;;;;;13.50;100.00;101838.69;5053912;28;20035;-72
2022/10/29 03:16:02;;;;;;;17.95;10.05;;;;;;;13.46;100.00;101833.69;5065234;28;20020;-71
2022/10/29 03:18:28;;;;;;;17.80;9.25;;;;;;;13.40;100.00;101828.31;5073700;28;20028;-72
2022/10/29 03:20:53;;;;;;;16.60;9.65;;;;;;;13.41;100.00;101822.66;5073586;28;20031;-71
2022/10/29 03:23:19;;;;;;;25.55;10.50;;;;;;;13.42;100.00;101823.50;5073796;28;20047;-72
2022/10/29 03:25:51;;;;;;;16.65;10.13;;;;;;;13.42;100.00;101821.63;5072685;28;20032;-71
2022/10/29 03:28:16;;;;;;;20.02;10.60;;;;;;;13.40;100.00;101822.88;5073288;28;20062;-71
2022/10/29 03:30:41;;;;;;;19.20;9.93;;;;;;;13.38;100.00;101814.13;5073224;28;20444;-72
2022/10/29 03:33:06;;;;;;;16.10;9.35;;;;;;;13.38;100.00;101814.13;5073135;28;20074;-71
2022/10/29 03:35:32;;;;;;;18.52;10.10;;;;;;;13.41;100.00;101813.69;5063779;28;20117;-71
2022/10/29 03:37:57;;;;;;;23.05;9.57;;;;;;;13.35;100.00;101809.13;5053233;28;20036;-71
2022/10/29 03:40:22;;;;;;;18.25;9.77;;;;;;;13.32;100.00;101804.94;5053535;28;20452;-72
2022/10/29 03:42:47;;;;;;;18.65;9.85;;;;;;;13.38;100.00;101808.69;5052989;28;20025;-72
2022/10/29 03:45:13;;;;;;;15.43;9.82;;;;;;;13.33;100.00;101798.44;5057895;28;20031;-71
2022/10/29 03:47:38;;;;;;;18.42;9.52;;;;;;;13.37;100.00;101807.84;5073186;28;20141;-71
2022/10/29 03:50:04;;;;;;;17.80;9.65;;;;;;;13.35;100.00;101803.69;5073234;28;20029;-71
2022/10/29 03:52:29;;;;;;;21.35;10.40;;;;;;;13.40;100.00;101809.28;5073225;28;20024;-71
2022/10/29 03:54:54;;;;;;;23.35;9.90;;;;;;;13.39;100.00;101803.03;5072932;28;20023;-71
2022/10/29 03:57:20;;;;;;;20.67;10.30;;;;;;;13.44;100.00;101796.94;5081708;28;20024;-70
2022/10/29 03:59:46;;;;;;;20.30;11.30;;;;;;;13.47;100.00;101785.63;5079599;28;20417;-71
2022/10/29 04:02:11;;;;;;;20.17;11.15;;;;;;;13.51;100.00;101778.66;5070266;28;20024;-71
2022/10/29 04:04:37;;;;;;;22.85;10.75;;;;;;;13.56;100.00;101781.56;5072022;28;20028;-72
2022/10/29 04:07:02;;;;;;;18.58;10.13;;;;;;;13.55;100.00;101781.78;5072555;28;20040;-71
2022/10/29 04:09:28;;;;;;;21.50;10.23;;;;;;;13.58;100.00;101771.28;5072913;28;20027;-71
2022/10/29 04:11:53;;;;;;;24.80;10.30;;;;;;;13.55;100.00;101777.16;5072926;28;20578;-72
2022/10/29 04:14:18;;;;;;;18.50;10.23;;;;;;;13.54;100.00;101775.53;5072347;28;20028;-71
2022/10/29 04:16:44;;;;;;;24.55;10.77;;;;;;;13.52;100.00;101772.16;5071118;28;20098;-72
2022/10/29 04:19:09;;;;;;;22.13;10.63;;;;;;;13.50;100.00;101773.44;5072815;28;20055;-71
2022/10/29 04:21:34;;;;;;;17.15;10.40;;;;;;;13.52;100.00;101765.91;5072442;28;20043;-71
2022/10/29 04:23:59;;;;;;;16.35;9.82;;;;;;;13.54;100.00;101759.22;5072629;28;20035;-71
2022/10/29 04:26:25;;;;;;;20.70;10.32;;;;;;;13.57;100.00;101758.75;5071479;28;20042;-71
2022/10/29 04:28:51;;;;;;;17.98;10.63;;;;;;;13.54;100.00;101767.38;5072581;28;20390;-72
2022/10/29 04:31:17;;;;;;;19.10;10.10;;;;;;;13.53;100.00;101757.53;5072445;28;20029;-71
2022/10/29 04:33:42;;;;;;;18.48;10.63;;;;;;;13.51;100.00;101756.06;5072483;28;20028;-71
2022/10/29 04:36:08;;;;;;;21.38;10.73;;;;;;;13.55;100.00;101757.31;5058606;28;20025;-72
2022/10/29 04:38:33;;;;;;;21.13;11.23;;;;;;;13.53;100.00;101749.38;5052504;28;20029;-72
2022/10/29 04:41:00;;;;;;;22.08;11.20;;;;;;;13.59;100.00;101745.75;5052547;28;20458;-71
2022/10/29 04:43:26;;;;;;;24.52;11.80;;;;;;;13.54;100.00;101756.50;5052487;28;20039;-71
2022/10/29 04:45:53;;;;;;;23.05;10.90;;;;;;;13.54;100.00;101761.94;5062148;28;20056;-72
2022/10/29 04:48:19;;;;;;;21.17;11.23;;;;;;;13.55;100.00;101760.84;5072463;28;20074;-71
2022/10/29 04:50:45;;;;;;;24.65;11.77;;;;;;;13.55;100.00;101769.00;5072494;28;20029;-72
2022/10/29 04:53:10;;;;;;;20.88;11.43;;;;;;;13.54;100.00;101758.34;5072186;28;20025;-72
2022/10/29 04:55:37;;;;;;;18.50;11.55;;;;;;;13.51;100.00;101759.63;5070040;28;20040;-71
2022/10/29 04:58:10;;;;;;;19.52;11.27;;;;;;;13.54;100.00;101759.22;5070942;28;20066;-72
2022/10/29 05:00:35;;;;;;;27.10;12.45;;;;;;;13.55;100.00;101739.09;5069837;28;20137;-72
2022/10/29 05:03:01;;;;;;;22.33;11.55;;;;;;;13.60;100.00;101749.31;5071164;28;20025;-72
2022/10/29 05:05:26;;;;;;;23.92;12.80;;;;;;;13.62;100.00;101748.03;5064860;28;20345;-72
2022/10/29 05:07:59;;;;;;;24.77;13.05;;;;;;;13.65;100.00;101744.88;5052002;28;20025;-72
2022/10/29 05:10:30;;;;;;;25.30;13.20;;;;;;;13.68;100.00;101742.75;5052098;28;20075;-71
2022/10/29 05:12:59;;;;;;;24.80;13.00;;;;;;;13.66;100.00;101753.84;5052546;28;20108;-71
2022/10/29 05:15:26;;;;;;;24.10;12.95;;;;;;;13.64;100.00;101747.81;5057056;28;20314;-72
2022/10/29 05:17:51;;;;;;;24.90;11.98;;;;;;;13.67;100.00;101738.38;5072195;28;20448;-71
2022/10/29 05:20:16;;;;;;;24.95;11.90;;;;;;;13.65;100.00;101739.44;5070651;28;20028;-72
2022/10/29 05:22:42;;;;;;;23.38;12.20;;;;;;;13.64;100.00;101732.31;5072183;28;20036;-71
2022/10/29 05:25:07;;;;;;;23.27;11.85;;;;;;;13.63;100.00;101733.38;5068152;28;20035;-71
2022/10/29 05:27:32;;;;;;;21.85;11.60;;;;;;;13.67;100.00;101741.09;5052489;28;20475;-71
2022/10/29 05:29:58;;;;;;;17.45;11.13;;;;;;;13.64;100.00;101736.94;5054659;28;20025;-71
2022/10/29 05:32:23;;;;;;;20.38;11.00;;;;;;;13.61;100.00;101729.22;5055646;28;20043;-70
2022/10/29 05:34:48;;;;;;;22.20;11.82;;;;;;;13.65;100.00;101723.09;5053953;28;20021;-71
2022/10/29 05:37:13;;;;;;;21.20;11.75;;;;;;;13.70;100.00;101718.88;5075537;28;20029;-71
2022/10/29 05:39:39;;;;;;;28.75;12.38;;;;;;;13.73;100.00;101716.53;5075859;28;20021;-72
2022/10/29 05:42:05;;;;;;;23.92;12.70;;;;;;;13.74;100.00;101714.63;5075429;28;20477;-71
2022/10/29 05:44:30;;;;;;;25.50;13.77;;;;;;;13.73;100.00;101713.81;5075384;28;20103;-71
2022/10/29 05:46:55;;;;;;;25.65;12.70;;;;;;;13.77;100.00;101714.22;5057154;28;20496;-70
2022/10/29 05:49:21;;;;;;;23.90;12.80;;;;;;;13.79;100.00;101712.91;5053829;28;20017;-70
2022/10/29 05:51:46;;;;;;;27.10;13.32;;;;;;;13.79;100.00;101709.38;5054279;28;20036;-70
2022/10/29 05:54:11;;;;;;;24.67;13.45;;;;;;;13.82;100.00;101714.38;5054023;28;20025;-72
2022/10/29 05:56:36;;;;;;;22.48;12.90;;;;;;;13.82;100.00;101700.75;5069385;28;20024;-70
2022/10/29 05:59:02;;;;;;;26.85;14.15;;;;;;;13.85;100.00;101711.19;5075263;28;20117;-72
2022/10/29 06:01:27;;;;;;;20.25;12.30;;;;;;;13.89;100.00;101706.13;5072679;28;20490;-71
2022/10/29 06:03:52;;;;;;;28.27;12.82;;;;;;;13.88;100.00;101699.84;5075013;28;20028;-71
2022/10/29 06:06:17;;;;;;;25.88;13.60;;;;;;;13.92;100.00;101700.22;5062535;28;20036;-71
2022/10/29 06:08:43;;;;;;;29.05;13.57;;;;;;;13.95;100.00;101706.06;5054798;28;20155;-71
2022/10/29 06:11:08;;;;;;;26.27;13.13;;;;;;;13.96;100.00;101701.44;5055000;28;20056;-71
2022/10/29 06:13:33;;;;;;;25.25;13.23;;;;;;;13.94;100.00;101703.56;5055197;28;20078;-71
2022/10/29 06:15:59;;;;;;;30.13;13.20;;;;;;;13.98;100.00;101715.66;5062859;28;20110;-70
2022/10/29 06:18:26;;;;;;;26.77;13.93;;;;;;;13.96;100.00;101732.19;5074927;28;20056;-70
2022/10/29 06:20:52;;;;;;;26.35;13.45;;;;;;;13.98;100.00;101730.09;5073465;28;20039;-70
2022/10/29 06:23:17;;;;;;;27.10;13.48;;;;;;;13.99;100.00;101730.91;5074791;28;20036;-71
2022/10/29 06:25:43;;;;;;;25.23;13.52;;;;;;;13.98;100.00;101730.09;5068106;28;20090;-71
2022/10/29 06:28:17;;;;;;;21.63;13.40;;;;;;;13.98;100.00;101732.81;5054300;28;20447;-71
2022/10/29 06:30:50;;;;;;;27.38;12.73;;;;;;;13.99;100.00;101723.59;5054831;28;20529;-70
2022/10/29 06:33:16;;;;;;;23.27;13.07;;;;;;;13.96;100.00;101718.59;5054462;28;20021;-71
2022/10/29 06:35:42;;;;;;;27.10;13.43;;;;;;;13.98;100.00;101715.66;5059723;28;20028;-70
2022/10/29 06:38:07;;;;;;;21.88;13.13;;;;;;;14.00;100.00;101732.59;5074448;28;20031;-71
2022/10/29 06:40:32;;;;;;;31.27;13.70;;;;;;;13.96;100.00;101734.91;5072992;28;20024;-71
2022/10/29 06:43:06;;;;;;;28.48;13.65;;;;;;;13.96;100.00;101726.75;5074247;28;20377;-76
2022/10/29 06:45:33;;;;;;;29.48;14.25;;;;;;;13.97;100.00;101735.75;5068964;28;20071;-76
2022/10/29 06:47:58;;;;;;;25.60;13.10;;;;;;;13.94;100.00;101733.50;5054439;28;20463;-71
2022/10/29 06:50:24;;;;;;;26.08;13.52;;;;;;;13.93;100.00;101729.91;5054585;28;20017;-72
2022/10/29 06:52:55;;;;;;;26.70;13.38;;;;;;;13.94;100.00;101737.03;5054348;28;20023;-73
2022/10/29 06:55:20;;;;;;;25.45;13.05;;;;;;;13.93;100.00;101735.38;5055605;28;20037;-72
2022/10/29 06:57:45;;;;;;;26.60;13.35;;;;;;;13.93;100.00;101738.09;5074564;28;20024;-71
2022/10/29 07:00:11;;;;;;;24.35;13.23;;;;;;;13.94;100.00;101742.47;5072768;28;20350;-72
2022/10/29 07:02:36;;;;;;;23.60;12.70;;;;;;;13.95;100.00;101744.16;5071772;28;20031;-72
2022/10/29 07:05:01;;;;;;;22.73;12.70;;;;;;;13.97;100.00;101746.66;5072551;28;20035;-71
2022/10/29 07:07:27;;;;;;;23.13;12.18;;;;;;;13.96;100.00;101740.34;5053570;28;20040;-73
2022/10/29 07:09:53;;;;;;;22.58;13.38;;;;;;;13.96;100.00;101734.09;5054224;28;20032;-73
2022/10/29 07:12:18;;;;;;;28.23;13.18;;;;;;;13.98;100.00;101727.38;5054878;28;20029;-77
2022/10/29 07:14:43;;;;;;;27.92;13.98;;;;;;;13.97;100.00;101720.25;5056035;28;20021;-72
2022/10/29 07:17:09;;;;;;;22.95;13.15;;;;;;;14.02;100.00;101716.03;5072649;28;20093;-71
2022/10/29 07:19:34;;;;;;;27.20;13.18;;;;;;;14.03;100.00;101725.88;5089207;28;20094;-72
2022/10/29 07:21:59;;;;;;;21.95;12.95;;;;;;;14.06;100.00;101711.81;5084698;28;20037;-73
2022/10/29 07:24:24;;;;;;;25.33;13.07;;;;;;;14.06;100.00;101707.19;5073974;28;20034;-74
2022/10/29 07:26:50;;;;;;;26.33;13.75;;;;;;;14.08;100.00;101699.63;5072684;28;20032;-74
2022/10/29 07:29:15;;;;;;;32.10;12.93;;;;;;;14.13;100.00;101697.06;5073444;28;20207;-75
2022/10/29 07:31:40;;;;;;;25.92;13.63;;;;;;;14.16;100.00;101703.91;5073643;28;20482;-73
2022/10/29 07:34:05;;;;;;;27.70;13.10;;;;;;;14.17;100.00;101702.88;5073403;28;20040;-75
2022/10/29 07:36:31;;;;;;;27.02;13.35;;;;;;;14.22;100.00;101703.03;5059974;28;20039;-75
2022/10/29 07:38:56;;;;;;;29.77;12.98;;;;;;;14.24;100.00;101698.19;5053425;28;20029;-75
2022/10/29 07:41:21;;;;;;;24.80;12.38;;;;;;;14.25;100.00;101699.84;5052966;28;20029;-74
2022/10/29 07:43:47;;;;;;;32.60;13.45;;;;;;;14.24;100.00;101698.19;5053474;28;20029;-74
2022/10/29 07:46:12;;;;;;;26.88;12.50;;;;;;;14.31;100.00;101698.94;5059986;28;20134;-74
2022/10/29 07:48:37;;;;;;;31.88;13.35;;;;;;;14.34;100.00;101697.63;5072883;28;20020;-73
2022/10/29 07:51:03;;;;;;;26.13;13.15;;;;;;;14.36;100.00;101698.25;5070954;28;20448;-75
2022/10/29 07:53:30;;;;;;;27.55;12.77;;;;;;;14.38;100.00;101695.28;5072956;28;20021;-75
2022/10/29 07:55:55;;;;;;;24.77;13.20;;;;;;;14.41;100.00;101705.72;5072187;28;20033;-74
2022/10/29 07:58:22;;;;;;;24.60;12.48;;;;;;;14.43;100.00;101707.16;5073084;28;20035;-76
2022/10/29 08:00:48;;;;;;;26.08;13.45;;;;;;;14.48;100.00;101703.75;5070887;28;20024;-76
2022/10/29 08:03:13;;;;;;;26.35;12.15;;;;;;;14.55;100.00;101699.00;5071790;28;20027;-74
2022/10/29 08:05:39;;;;;;;23.48;12.82;;;;;;;14.56;100.00;101692.53;5071854;28;20016;-74
2022/10/29 08:08:05;;;;;;;27.00;12.80;;;;;;;14.62;100.00;101698.97;5073413;28;20035;-77
2022/10/29 08:10:33;;;;;;;23.10;11.95;;;;;;;14.67;100.00;101696.38;5067108;28;20367;-75
2022/10/29 08:13:00;;;;;;;24.35;13.43;;;;;;;14.71;100.00;101690.22;5087972;28;20028;-75
2022/10/29 08:15:28;;;;;;;24.90;12.20;;;;;;;14.77;100.00;101690.38;5070225;28;20024;-75
2022/10/29 08:17:53;;;;;;;27.60;12.98;;;;;;;14.81;100.00;101692.41;5052889;28;20020;-75
2022/10/29 08:20:20;;;;;;;31.38;13.70;;;;;;;14.86;100.00;101688.97;5052568;28;20017;-74
2022/10/29 08:22:46;;;;;;;26.25;12.23;;;;;;;14.90;100.00;101682.00;5052855;28;20411;-74
2022/10/29 08:25:13;;;;;;;23.73;12.02;;;;;;;14.96;100.00;101680.22;5052822;28;20029;-74
2022/10/29 08:27:38;;;;;;;21.95;12.23;;;;;;;14.97;100.00;101690.88;5071017;28;20024;-76
2022/10/29 08:30:05;;;;;;;26.50;12.50;;;;;;;14.99;100.00;101687.91;5072444;28;20081;-73
2022/10/29 08:32:30;;;;;;;27.70;12.00;;;;;;;15.01;100.00;101674.91;5072599;28;20028;-73
2022/10/29 08:34:55;;;;;;;23.10;11.63;;;;;;;15.06;100.00;101683.19;5071327;28;20364;-74
2022/10/29 08:37:21;;;;;;;22.23;11.30;;;;;;;15.11;100.00;101690.69;5069619;28;20368;-72
2022/10/29 08:39:46;;;;;;;23.92;11.93;;;;;;;15.16;100.00;101694.38;5072606;28;20104;-75
2022/10/29 08:42:45;;;;;;;24.20;10.43;;;;;;;15.25;100.00;101700.31;5072762;28;20107;-73
2022/10/29 08:45:10;;;;;;;24.33;12.68;;;;;;;15.31;100.00;101695.78;5051310;28;20094;-79
2022/10/29 08:48:02;;;;;;;23.35;11.27;;;;;;;15.35;100.00;101689.66;5052947;28;20444;-80
2022/10/29 08:50:32;;;;;;;22.92;11.57;;;;;;;15.42;100.00;101690.34;5052704;28;20103;-72
2022/10/29 08:53:00;;;;;;;23.23;10.73;;;;;;;15.47;100.00;101684.16;5052156;28;20060;-72
2022/10/29 08:55:33;;;;;;;24.95;11.15;;;;;;;15.50;100.00;101686.44;5056601;28;20032;-72
2022/10/29 08:58:12;;;;;;;23.45;9.48;;;;;;;15.53;100.00;101687.84;5072176;28;20040;-73
2022/10/29 09:00:41;;;;;;;18.88;10.27;;;;;;;15.56;100.00;101676.47;5069844;28;20017;-72
2022/10/29 09:03:11;;;;;;;22.10;10.30;;;;;;;15.60;100.00;101677.66;5055085;28;20047;-74
2022/10/29 09:05:59;;;;;;;20.73;10.27;;;;;;;15.65;100.00;101676.94;5062144;28;20157;-73
2022/10/29 09:08:53;;;;;;;23.77;9.88;;;;;;;15.70;100.00;101675.16;5075833;28;20091;-72
2022/10/29 09:11:27;;;;;;;24.95;10.45;;;;;;;15.75;100.00;101672.53;5071191;28;20098;-72
2022/10/29 09:14:18;;;;;;;20.98;9.82;;;;;;;15.83;100.00;101668.63;5076323;28;20379;-72
2022/10/29 09:16:58;;;;;;;18.80;8.50;;;;;;;15.89;100.00;101675.84;5058140;28;20045;-73
2022/10/29 09:19:39;;;;;;;19.02;8.10;;;;;;;15.95;100.00;101674.06;5069475;28;20439;-73
2022/10/29 09:22:22;;;;;;;22.10;8.90;;;;;;;16.02;100.00;101685.69;5076136;28;20049;-72
2022/10/29 09:25:03;;;;;;;16.40;8.02;;;;;;;16.07;100.00;101684.97;5076045;28;20036;-73
2022/10/29 09:27:49;;;;;;;15.68;7.60;;;;;;;16.11;100.00;101680.69;5075913;28;20027;-73
2022/10/29 09:30:17;;;;;;;18.80;7.82;;;;;;;16.11;100.00;101662.41;5075956;28;20111;-73
2022/10/29 09:32:54;;;;;;;15.60;7.60;;;;;;;16.13;100.00;101659.44;5075586;28;20016;-73
2022/10/29 09:35:25;;;;;;;23.90;7.85;;;;;;;16.15;100.00;101668.19;5075744;28;20099;-72
2022/10/29 09:37:58;;;;;;;19.55;6.90;;;;;;;16.18;100.00;101666.88;5073280;28;20359;-74
2022/10/29 09:40:28;;;;;;;17.88;7.80;;;;;;;16.18;100.00;101659.50;5055755;28;20021;-75
2022/10/29 09:42:54;;;;;;;21.02;7.80;;;;;;;16.21;100.00;101677.31;5055368;28;20375;-73
2022/10/29 09:45:25;;;;;;;26.00;8.15;;;;;;;16.23;100.00;101669.72;5053841;28;20029;-74
2022/10/29 09:48:12;;;;;;;18.20;7.22;;;;;;;16.28;100.00;101662.44;5054955;28;20524;-72
2022/10/29 09:50:56;;;;;;;17.05;7.47;;;;;;;16.38;100.00;101650.06;5061182;28;20025;-72
2022/10/29 09:53:22;;;;;;;18.48;7.10;;;;;;;16.47;100.00;101643.13;5072994;28;20521;-74
2022/10/29 09:55:52;;;;;;;17.35;6.85;;;;;;;16.53;100.00;101644.06;5065091;28;20033;-74
2022/10/29 09:58:23;;;;;;;26.70;7.13;;;;;;;16.63;100.00;101644.25;5054227;28;20452;-74
2022/10/29 10:00:50;;;;;;;19.67;6.85;;;;;;;16.74;100.00;101637.03;5065169;28;20122;-74
2022/10/29 10:03:29;;;;;;;19.77;6.93;;;;;;;16.88;100.00;101638.44;5095651;28;20043;-73
2022/10/29 10:06:08;;;;;;;19.20;6.47;;;;;;;16.97;100.00;101636.09;5072690;28;20032;-77
2022/10/29 10:08:55;;;;;;;20.38;6.20;;;;;;;17.11;100.00;101637.41;5079214;28;20131;-74
2022/10/29 10:11:20;;;;;;;15.43;5.85;;;;;;;17.12;100.00;101630.88;5054492;28;20116;-75
2022/10/29 10:13:58;;;;;;;15.50;6.00;;;;;;;17.14;100.00;101636.91;5075221;28;20055;-74
2022/10/29 10:16:27;;;;;;;18.35;5.47;;;;;;;17.17;100.00;101635.59;5057728;28;20043;-75
2022/10/29 10:18:52;;;;;;;14.85;5.40;;;;;;;17.20;100.00;101634.28;5062902;28;20480;-74
2022/10/29 10:21:26;;;;;;;18.25;5.90;;;;;;;17.20;100.00;101626.06;5053331;28;20085;-74
2022/10/29 10:23:53;;;;;;;16.65;5.70;;;;;;;17.27;100.00;101640.38;5067811;28;20025;-74
2022/10/29 10:26:41;;;;;;;15.63;5.63;;;;;;;17.38;100.00;101633.16;5071135;28;20035;-74
2022/10/29 10:29:15;;;;;;;20.65;5.97;;;;;;;17.45;100.00;101636.53;5073203;28;20028;-73
2022/10/29 10:32:03;;;;;;;17.60;5.40;;;;;;;17.54;100.00;101627.66;5090719;28;20025;-73
2022/10/29 10:34:31;;;;;;;22.25;5.60;;;;;;;17.63;100.00;101632.69;5059600;28;20044;-74
2022/10/29 10:37:10;;;;;;;14.55;5.78;;;;;;;17.68;100.00;101630.03;5072336;28;20033;-74
2022/10/29 10:39:38;;;;;;;14.98;5.20;;;;;;;17.76;100.00;101620.53;5084233;28;20050;-73
2022/10/29 10:42:14;;;;;;;13.70;5.20;;;;;;;17.89;100.00;101626.50;5084503;28;20035;-73
2022/10/29 10:44:53;;;;;;;15.05;5.30;;;;;;;18.05;100.00;101618.44;5081122;28;20055;-73
2022/10/29 10:47:22;;;;;;;16.88;5.28;;;;;;;18.17;100.00;101616.38;5058169;28;20032;-73
2022/10/29 10:49:48;;;;;;;18.27;4.90;;;;;;;18.23;100.00;101617.28;5085942;28;20052;-73
2022/10/29 10:52:22;;;;;;;15.52;5.05;;;;;;;18.36;100.00;101602.34;5076883;28;20463;-74
2022/10/29 10:55:01;;;;;;;21.00;4.82;;;;;;;18.40;100.00;101611.69;5072742;28;20444;-76
2022/10/29 10:57:33;;;;;;;16.30;4.85;;;;;;;18.43;100.00;101597.47;5054278;28;20033;-78
2022/10/29 11:00:19;;;;;;;19.90;5.13;;;;;;;18.53;100.00;101603.03;5054430;28;20078;-75
2022/10/29 11:03:05;;;;;;;17.02;4.55;;;;;;;18.66;100.00;101603.69;5050937;28;20020;-74
2022/10/29 11:05:34;;;;;;;10.32;4.25;;;;;;;18.75;100.00;101604.88;5059406;28;20021;-73
2022/10/29 11:08:20;;;;;;;19.80;4.95;;;;;;;18.84;100.00;101608.81;5068957;28;20024;-74
2022/10/29 11:10:55;;;;;;;18.00;4.53;;;;;;;18.91;100.00;101603.13;5053753;28;20060;-73
2022/10/29 11:13:24;;;;;;;14.93;4.70;;;;;;;19.00;100.00;101601.53;5062331;28;20021;-74
2022/10/29 11:15:56;;;;;;;17.35;5.13;;;;;;;19.05;100.00;101601.59;5059626;28;20031;-73